Pagrindinis puslapis
METAR-TAF:

METAR-TAF

Oro uostai :

Abu Simbelas, Egiptas

platuma: 22-22-33N, ilguma: 31-36-42E, Aukštis: 188 m

Dabartinis oras

Ataskaita buvo paskelbta 44 minutes, ne 07:00 UTC
Vėjas 10 kt iš Šiaurės/Šiaurės Vakarų
Temperatūra 33°C
Drėgmė 26%
Slėgis 1007 hPa
Matomumas 10 km arba daugiau
nėra debesų žemiau 1500 m ir nėra kamuolinių lietaus debesų

METAR: HEBL 170700Z 34010KT CAVOK 33/11 Q1007 NOSIG

Laikas: 09:44 (07:44 UTC)

Prognozė

Ataskaita buvo paskelbta 2 valandos ir 44 minutes, ne 05:00 UTC
Prognozė galioja nuo 17 metu 06 UTC su 18 metu 12 UTC
Vėjas 10 kt iš Šiaurės
Matomumas 10 km arba daugiau
nėra debesų žemiau 1500 m ir nėra kamuolinių lietaus debesų

TAF: HEBL 170500Z 1706/1812 35010KT CAVOK

Orai ataskaitas ir orų prognozės (METAR, TAF).

turimą stotys yra geltonos ir raudonos taškus žemėlapyje.

Perkelti pele per norėdami pamatyti stoties vardą.

Tada spustelėkite, norėdami matyti oro stebėjimo ir prognozės.

Norėdami pakeisti žemėlapį: spustelėkite ant žalios mygtukų su juodo kryžiaus žemyn,; žalią mygtuką su brūkšneliu, jei norite nutolinti; arba žalių rodyklių gretimoms žemėlapius.


METAR-TAF: